sensor_id;sensor_type;location;lat;lon;timestamp;pressure;altitude;pressure_sealevel;temperature;humidity
75424;BME280;64005;55.160;36.002;2024-02-04T09:53:44;96293.91;;;1.66;77.53
75424;BME280;64005;55.160;36.002;2024-02-04T09:56:12;96287.03;;;1.60;77.85
75424;BME280;64005;55.160;36.002;2024-02-04T09:58:39;96303.59;;;1.64;77.92
75424;BME280;64005;55.160;36.002;2024-02-04T10:01:07;96298.59;;;1.66;78.02
75424;BME280;64005;55.160;36.002;2024-02-04T10:03:35;96303.03;;;1.70;78.28
75424;BME280;64005;55.160;36.002;2024-02-04T10:06:03;96301.53;;;1.73;78.20
75424;BME280;64005;55.160;36.002;2024-02-04T10:08:32;96297.28;;;1.87;78.54
75424;BME280;64005;55.160;36.002;2024-02-04T10:11:01;96288.88;;;2.08;78.82
75424;BME280;64005;55.160;36.002;2024-02-04T10:13:29;96283.47;;;2.24;78.58
75424;BME280;64005;55.160;36.002;2024-02-04T10:16:09;96280.13;;;2.30;78.10
75424;BME280;64005;55.160;36.002;2024-02-04T10:18:42;96270.59;;;2.40;78.54
75424;BME280;64005;55.160;36.002;2024-02-04T10:21:17;96293.53;;;2.48;78.04
75424;BME280;64005;55.160;36.002;2024-02-04T10:23:45;96282.13;;;2.46;77.08
75424;BME280;64005;55.160;36.002;2024-02-04T10:26:15;96287.97;;;2.44;77.58
75424;BME280;64005;55.160;36.002;2024-02-04T10:28:45;96287.97;;;2.44;77.24
75424;BME280;64005;55.160;36.002;2024-02-04T10:31:25;96294.47;;;2.39;77.14
75424;BME280;64005;55.160;36.002;2024-02-04T10:33:53;96292.00;;;2.34;76.94
75424;BME280;64005;55.160;36.002;2024-02-04T10:36:32;96288.44;;;2.34;77.11
75424;BME280;64005;55.160;36.002;2024-02-04T10:39:03;96285.50;;;2.27;77.14
75424;BME280;64005;55.160;36.002;2024-02-04T10:41:34;96298.78;;;2.25;76.79
75424;BME280;64005;55.160;36.002;2024-02-04T10:44:22;96293.63;;;2.23;75.85
75424;BME280;64005;55.160;36.002;2024-02-04T10:46:51;96292.94;;;2.26;76.56
75424;BME280;64005;55.160;36.002;2024-02-04T10:49:23;96283.31;;;2.32;76.85
75424;BME280;64005;55.160;36.002;2024-02-04T10:51:55;96305.91;;;2.42;77.09
75424;BME280;64005;55.160;36.002;2024-02-04T10:54:24;96298.00;;;2.52;76.77
75424;BME280;64005;55.160;36.002;2024-02-04T10:57:01;96296.78;;;2.65;76.91
75424;BME280;64005;55.160;36.002;2024-02-04T10:59:31;96302.88;;;2.74;77.43
75424;BME280;64005;55.160;36.002;2024-02-04T11:02:00;96309.66;;;2.93;77.55
75424;BME280;64005;55.160;36.002;2024-02-04T11:04:29;96310.75;;;3.04;76.84
75424;BME280;64005;55.160;36.002;2024-02-04T11:07:15;96302.56;;;3.07;76.58
75424;BME280;64005;55.160;36.002;2024-02-04T11:09:51;96291.50;;;3.04;76.60
75424;BME280;64005;55.160;36.002;2024-02-04T11:12:22;96301.78;;;2.91;75.42
75424;BME280;64005;55.160;36.002;2024-02-04T11:14:57;96295.78;;;2.73;75.37
75424;BME280;64005;55.160;36.002;2024-02-04T11:20:52;96286.03;;;2.60;76.06
75424;BME280;64005;55.160;36.002;2024-02-04T11:23:36;96297.19;;;2.52;75.36
75424;BME280;64005;55.160;36.002;2024-02-04T11:26:14;96292.66;;;2.44;75.37
75424;BME280;64005;55.160;36.002;2024-02-04T11:28:45;96293.34;;;2.40;75.83
75424;BME280;64005;55.160;36.002;2024-02-04T11:31:17;96296.19;;;2.44;75.86
75424;BME280;64005;55.160;36.002;2024-02-04T11:33:45;96305.31;;;2.48;75.78
75424;BME280;64005;55.160;36.002;2024-02-04T11:36:14;96303.81;;;2.51;76.03
75424;BME280;64005;55.160;36.002;2024-02-04T11:38:49;96296.38;;;2.51;75.78
75424;BME280;64005;55.160;36.002;2024-02-04T11:41:22;96308.72;;;2.57;76.03
75424;BME280;64005;55.160;36.002;2024-02-04T11:43:58;96301.47;;;2.65;76.31
75424;BME280;64005;55.160;36.002;2024-02-04T11:50:11;96308.28;;;2.71;75.62
75424;BME280;64005;55.160;36.002;2024-02-04T11:52:40;96299.34;;;2.74;75.78
75424;BME280;64005;55.160;36.002;2024-02-04T11:55:14;96303.44;;;2.80;75.64
75424;BME280;64005;55.160;36.002;2024-02-04T11:57:43;96297.78;;;2.89;75.84
75424;BME280;64005;55.160;36.002;2024-02-04T12:00:14;96305.06;;;2.97;76.01
75424;BME280;64005;55.160;36.002;2024-02-04T12:02:42;96292.47;;;2.96;74.84
75424;BME280;64005;55.160;36.002;2024-02-04T12:05:10;96302.56;;;2.92;74.89
75424;BME280;64005;55.160;36.002;2024-02-04T12:07:38;96305.38;;;2.79;74.42
75424;BME280;64005;55.160;36.002;2024-02-04T12:10:08;96306.25;;;2.68;74.86
75424;BME280;64005;55.160;36.002;2024-02-04T12:12:44;96305.50;;;2.55;74.81
75424;BME280;64005;55.160;36.002;2024-02-04T12:15:13;96297.00;;;2.45;74.73
75424;BME280;64005;55.160;36.002;2024-02-04T20:20:48;96393.28;;;-0.77;75.36
75424;BME280;64005;55.160;36.002;2024-02-04T20:23:15;96388.00;;;-0.83;75.67
75424;BME280;64005;55.160;36.002;2024-02-04T20:25:42;96395.56;;;-0.88;75.50
75424;BME280;64005;55.160;36.002;2024-02-04T20:28:10;96399.91;;;-0.87;75.12
75424;BME280;64005;55.160;36.002;2024-02-04T20:30:37;96396.38;;;-0.88;75.28
75424;BME280;64005;55.160;36.002;2024-02-04T20:33:04;96397.19;;;-0.87;75.65
75424;BME280;64005;55.160;36.002;2024-02-04T20:35:33;96389.78;;;-0.87;75.36
75424;BME280;64005;55.160;36.002;2024-02-04T20:38:02;96395.25;;;-0.87;75.69
75424;BME280;64005;55.160;36.002;2024-02-04T20:40:29;96383.19;;;-0.86;75.62
75424;BME280;64005;55.160;36.002;2024-02-04T20:42:56;96384.34;;;-0.87;75.38
75424;BME280;64005;55.160;36.002;2024-02-04T20:45:25;96394.44;;;-0.87;75.82
75424;BME280;64005;55.160;36.002;2024-02-04T20:47:52;96394.78;;;-0.89;75.19
75424;BME280;64005;55.160;36.002;2024-02-04T20:50:25;96406.81;;;-0.90;75.83
75424;BME280;64005;55.160;36.002;2024-02-04T20:52:52;96407.63;;;-0.89;75.31
75424;BME280;64005;55.160;36.002;2024-02-04T20:55:22;96399.75;;;-0.91;75.99
75424;BME280;64005;55.160;36.002;2024-02-04T20:57:50;96400.38;;;-0.85;75.90
75424;BME280;64005;55.160;36.002;2024-02-04T21:00:17;96407.44;;;-0.84;75.91
